createdAt,value
2019-01-11T00:01:45.676Z,101005.33
2019-01-11T00:04:13.692Z,100991.64
2019-01-11T00:06:41.728Z,100992.93
2019-01-11T00:09:09.850Z,100991.27
2019-01-11T00:11:38.108Z,100994.42
2019-01-11T00:14:06.223Z,100994.88
2019-01-11T00:16:34.262Z,100997.93
2019-01-11T00:19:07.097Z,100990.17
2019-01-11T00:21:32.296Z,100984.64
2019-01-11T00:24:00.337Z,100987.69
2019-01-11T00:26:28.450Z,100989.87
2019-01-11T00:28:56.480Z,100988.58
2019-01-11T00:31:24.524Z,100983.88
2019-01-11T00:33:52.534Z,100992.09
2019-01-11T00:36:20.575Z,100994.68
2019-01-11T00:38:48.723Z,100988.68
2019-01-11T00:41:16.741Z,100987.39
2019-01-11T00:43:44.754Z,100987.39
2019-01-11T00:46:12.739Z,100989.05
2019-01-11T00:48:40.805Z,100990.80
2019-01-11T00:51:08.795Z,100987.75
2019-01-11T00:53:36.815Z,100991.27
2019-01-11T00:56:04.957Z,100996.06
2019-01-11T00:58:32.985Z,100989.14
2019-01-11T01:01:01.051Z,100991.83
2019-01-11T01:03:29.361Z,100996.53
2019-01-11T01:05:57.373Z,100998.75
2019-01-11T01:08:30.497Z,100992.75
2019-01-11T01:10:55.295Z,100992.29
2019-01-11T01:13:23.325Z,100983.61
2019-01-11T01:15:51.350Z,100986.29
2019-01-11T01:18:19.426Z,100993.68
2019-01-11T01:20:47.456Z,100993.68
2019-01-11T01:23:15.488Z,100985.46
2019-01-11T01:25:43.471Z,100997.92
2019-01-11T01:28:11.483Z,100997.62
2019-01-11T01:30:39.529Z,100996.80
2019-01-11T01:33:07.534Z,101003.72
2019-01-11T01:35:36.358Z,101010.17
2019-01-11T01:38:04.397Z,101008.98
2019-01-11T01:40:32.412Z,101010.73
2019-01-11T01:43:01.007Z,101018.12
2019-01-11T01:45:29.503Z,101018.95
2019-01-11T01:47:57.534Z,101018.59
2019-01-11T01:50:25.540Z,101022.46
2019-01-11T01:52:53.616Z,101020.04
2019-01-11T01:55:21.619Z,101023.09
2019-01-11T01:57:49.648Z,101023.92
2019-01-11T02:00:18.510Z,101025.20
2019-01-11T02:02:46.836Z,101023.19
2019-01-11T02:05:15.685Z,101020.23
2019-01-11T02:07:44.053Z,101023.28
2019-01-11T02:10:13.021Z,101022.91
2019-01-11T02:12:41.048Z,101026.02
2019-01-11T02:15:10.545Z,101023.91
2019-01-11T02:17:38.954Z,101023.63
2019-01-11T02:20:11.665Z,101028.43
2019-01-11T02:22:39.665Z,101027.30
2019-01-11T02:25:08.234Z,101023.98
2019-01-11T02:27:38.882Z,101023.70
2019-01-11T02:30:14.744Z,101022.94
2019-01-11T02:32:42.816Z,101029.95
2019-01-11T02:35:11.054Z,101022.30
2019-01-11T02:37:39.345Z,101029.68
2019-01-11T02:40:07.767Z,101026.80
2019-01-11T02:42:35.768Z,101023.84
2019-01-11T02:45:05.203Z,101021.72
2019-01-11T02:47:33.224Z,101026.98
2019-01-11T02:50:01.239Z,101025.32
2019-01-11T02:52:29.242Z,101028.80
2019-01-11T02:54:57.238Z,101022.53
2019-01-11T02:57:25.229Z,101026.40
2019-01-11T02:59:53.247Z,101028.98
2019-01-11T03:02:21.254Z,101028.25
2019-01-11T03:04:49.255Z,101023.60
2019-01-11T03:07:17.252Z,101031.81
2019-01-11T03:09:45.584Z,101027.94
2019-01-11T03:12:13.587Z,101028.03
2019-01-11T03:14:41.629Z,101029.78
2019-01-11T03:17:09.749Z,101022.96
2019-01-11T03:19:37.791Z,101024.72
2019-01-11T03:22:05.851Z,101036.24
2019-01-11T03:24:33.937Z,101032.46
2019-01-11T03:27:01.925Z,101020.16
2019-01-11T03:29:29.959Z,101022.56
2019-01-11T03:31:57.953Z,101023.92
2019-01-11T03:34:25.972Z,101033.81
2019-01-11T03:36:53.998Z,101029.17
2019-01-11T03:39:22.008Z,101030.83
2019-01-11T03:42:21.558Z,101030.37
2019-01-11T03:44:49.578Z,101032.06
2019-01-11T03:47:17.631Z,101029.48
2019-01-11T03:49:45.734Z,101031.66
2019-01-11T03:52:13.758Z,101027.05
2019-01-11T03:54:41.756Z,101031.02
2019-01-11T03:57:09.775Z,101031.57
2019-01-11T03:59:40.556Z,101024.81
2019-01-11T04:02:08.598Z,101029.70
2019-01-11T04:04:36.615Z,101029.41
2019-01-11T04:07:04.583Z,101024.31
2019-01-11T04:09:32.604Z,101025.23
2019-01-11T04:12:00.707Z,101026.52
2019-01-11T04:14:28.928Z,101025.70
2019-01-11T04:16:56.919Z,101036.11
2019-01-11T04:19:28.157Z,101037.50
2019-01-11T04:22:06.258Z,101028.06
2019-01-11T04:24:45.855Z,101027.17
2019-01-11T04:27:13.867Z,101033.63
2019-01-11T04:29:41.857Z,101031.41
2019-01-11T04:32:09.838Z,101034.73
2019-01-11T04:34:37.866Z,101036.70
2019-01-11T04:37:05.821Z,101036.52
2019-01-11T04:39:33.894Z,101031.62
2019-01-11T04:42:01.872Z,101035.44
2019-01-11T04:44:29.905Z,101037.47
2019-01-11T04:46:57.885Z,101036.64
2019-01-11T04:49:25.903Z,101047.70
2019-01-11T04:51:54.014Z,101042.45
2019-01-11T04:54:22.078Z,101040.18
2019-01-11T04:56:50.238Z,101037.50
2019-01-11T04:59:18.392Z,101036.13
2019-01-11T05:01:46.397Z,101048.20
2019-01-11T05:04:14.413Z,101046.45
2019-01-11T05:06:42.445Z,101045.53
2019-01-11T05:09:10.461Z,101053.27
2019-01-11T05:11:38.969Z,101050.63
2019-01-11T05:14:07.415Z,101049.34
2019-01-11T05:16:39.438Z,101045.92
2019-01-11T05:19:05.318Z,101043.34
2019-01-11T05:21:33.314Z,101045.06
2019-01-11T05:24:02.426Z,101044.23
2019-01-11T05:26:30.450Z,101043.41
2019-01-11T05:28:58.450Z,101044.23
2019-01-11T05:31:26.558Z,101041.38
2019-01-11T05:33:54.552Z,101037.69
2019-01-11T05:36:22.718Z,101036.83
2019-01-11T05:38:50.782Z,101037.84
2019-01-11T05:41:18.914Z,101045.12
2019-01-11T05:43:46.895Z,101038.67
2019-01-11T05:46:14.913Z,101043.84
2019-01-11T05:48:42.890Z,101047.80
2019-01-11T05:51:10.978Z,101054.25
2019-01-11T05:53:39.245Z,101045.31
2019-01-11T05:56:09.863Z,101043.70
2019-01-11T05:58:43.265Z,101048.97
2019-01-11T06:01:13.056Z,101046.75
2019-01-11T06:03:42.053Z,101041.77
2019-01-11T06:06:10.269Z,101040.48
2019-01-11T06:08:38.574Z,101042.23
2019-01-11T06:11:06.620Z,101049.88
2019-01-11T06:13:34.684Z,101053.02
2019-01-11T06:16:02.855Z,101043.16
2019-01-11T06:18:30.840Z,101044.50
2019-01-11T06:20:58.926Z,101048.84
2019-01-11T06:23:26.976Z,101050.59
2019-01-11T06:25:54.998Z,101056.58
2019-01-11T06:28:23.008Z,101058.70
2019-01-11T06:30:51.019Z,101067.22
2019-01-11T06:33:19.108Z,101064.91
2019-01-11T06:35:48.132Z,101065.66
2019-01-11T06:38:16.174Z,101064.30
2019-01-11T06:40:44.206Z,101066.95
2019-01-11T06:43:12.232Z,101068.61
2019-01-11T06:45:40.256Z,101070.36
2019-01-11T06:48:26.109Z,101080.31
2019-01-11T06:50:54.091Z,101074.04
2019-01-11T06:53:22.168Z,101070.78
2019-01-11T06:55:50.158Z,101081.48
2019-01-11T06:58:18.166Z,101083.17
2019-01-11T07:00:46.165Z,101079.20
2019-01-11T07:03:14.473Z,101077.45
2019-01-11T07:05:42.729Z,101079.94
2019-01-11T07:08:10.774Z,101075.92
2019-01-11T07:10:38.876Z,101076.66
2019-01-11T07:13:06.873Z,101077.03
2019-01-11T07:15:34.878Z,101076.57
2019-01-11T07:18:02.979Z,101082.94
2019-01-11T07:20:30.952Z,101076.42
2019-01-11T07:22:59.304Z,101073.75
2019-01-11T07:25:27.227Z,101075.77
2019-01-11T07:28:00.260Z,101070.52
2019-01-11T07:30:43.126Z,101065.45
2019-01-11T07:33:14.426Z,101065.45
2019-01-11T07:35:49.744Z,101068.86
2019-01-11T07:38:17.872Z,101066.19
2019-01-11T07:40:45.878Z,101066.95
2019-01-11T07:43:13.864Z,101065.11
2019-01-11T07:45:41.877Z,101069.26
2019-01-11T07:48:09.906Z,101067.36
2019-01-11T07:50:37.910Z,101074.09
2019-01-11T07:53:05.928Z,101077.87
2019-01-11T07:55:33.948Z,101078.73
2019-01-11T07:58:01.961Z,101077.34
2019-01-11T08:00:30.947Z,101073.11
2019-01-11T08:02:58.943Z,101071.81
2019-01-11T08:05:27.225Z,101074.39
2019-01-11T08:07:55.255Z,101074.77
2019-01-11T08:10:23.283Z,101075.13
2019-01-11T08:12:51.280Z,101075.59
2019-01-11T08:15:19.397Z,101072.00
2019-01-11T08:17:47.649Z,101077.99
2019-01-11T08:20:15.658Z,101081.80
2019-01-11T08:22:43.664Z,101083.53
2019-01-11T08:25:11.940Z,101078.77
2019-01-11T08:27:40.635Z,101081.25
2019-01-11T08:30:12.084Z,101081.25
2019-01-11T08:32:40.340Z,101089.37
2019-01-11T08:35:09.233Z,101088.35
2019-01-11T08:37:37.251Z,101096.50
2019-01-11T08:40:05.900Z,101091.34
2019-01-11T08:42:33.885Z,101096.04
2019-01-11T08:45:02.139Z,101098.99
2019-01-11T08:47:30.142Z,101090.78
2019-01-11T08:49:58.153Z,101090.41
2019-01-11T08:52:26.165Z,101088.30
2019-01-11T08:54:54.181Z,101091.77
2019-01-11T08:57:22.316Z,101096.10
2019-01-11T08:59:50.273Z,101089.28
2019-01-11T09:02:18.246Z,101091.48
2019-01-11T09:04:46.231Z,101090.11
2019-01-11T09:07:14.260Z,101092.17
2019-01-11T09:09:42.266Z,101094.20
2019-01-11T09:12:10.254Z,101097.14
2019-01-11T09:14:46.811Z,101102.69
2019-01-11T09:17:15.653Z,101112.09
2019-01-11T09:19:43.700Z,101109.97
2019-01-11T09:22:11.978Z,101111.17
2019-01-11T09:24:39.978Z,101113.75
2019-01-11T09:27:07.977Z,101109.88
2019-01-11T09:29:35.988Z,101112.46
2019-01-11T09:32:04.435Z,101112.03
2019-01-11T09:34:32.468Z,101114.16
2019-01-11T09:37:00.472Z,101117.38
2019-01-11T09:39:28.439Z,101119.14
2019-01-11T09:41:56.450Z,101121.72
2019-01-11T09:44:24.750Z,101118.98
2019-01-11T09:46:52.770Z,101118.06
2019-01-11T09:49:20.773Z,101118.42
2019-01-11T09:51:48.864Z,101117.59
2019-01-11T09:54:16.870Z,101109.84
2019-01-11T09:56:44.919Z,101115.66
2019-01-11T09:59:12.944Z,101111.72
2019-01-11T10:01:41.563Z,101115.50
2019-01-11T10:04:13.654Z,101112.61
2019-01-11T10:06:51.932Z,101104.39
2019-01-11T10:09:20.001Z,101105.31
2019-01-11T10:11:48.144Z,101107.75
2019-01-11T10:14:16.142Z,101110.51
2019-01-11T10:16:44.141Z,101117.28
2019-01-11T10:19:12.166Z,101116.16
2019-01-11T10:21:41.321Z,101103.55
2019-01-11T10:24:09.339Z,101102.06
2019-01-11T10:26:37.335Z,101100.67
2019-01-11T10:29:05.366Z,101097.56
2019-01-11T10:31:33.355Z,101103.00
2019-01-11T10:34:01.336Z,101101.71
2019-01-11T10:36:29.346Z,101098.20
2019-01-11T10:38:57.358Z,101091.64
2019-01-11T10:41:25.425Z,101092.05
2019-01-11T10:43:53.496Z,101092.31
2019-01-11T10:46:36.075Z,101087.33
2019-01-11T10:49:04.095Z,101088.16
2019-01-11T10:51:32.141Z,101082.16
2019-01-11T10:54:00.229Z,101087.87
2019-01-11T10:56:28.323Z,101091.86
2019-01-11T10:58:56.332Z,101088.34
2019-01-11T11:01:24.342Z,101087.82
2019-01-11T11:03:52.321Z,101084.94
2019-01-11T11:06:20.371Z,101074.23
2019-01-11T11:08:48.409Z,101079.50
2019-01-11T11:11:16.789Z,101074.70
2019-01-11T11:13:45.016Z,101069.89
2019-01-11T11:16:13.257Z,101076.91
2019-01-11T11:18:41.269Z,101066.57
2019-01-11T11:21:09.282Z,101068.03
2019-01-11T11:23:37.275Z,101067.41
2019-01-11T11:26:05.292Z,101063.98
2019-01-11T11:28:33.286Z,101065.02
2019-01-11T11:31:02.601Z,101064.36
2019-01-11T11:33:30.604Z,101053.84
2019-01-11T11:35:58.624Z,101056.13
2019-01-11T11:38:26.629Z,101055.14
2019-01-11T11:40:54.651Z,101057.98
2019-01-11T11:43:22.631Z,101046.25
2019-01-11T11:45:50.968Z,101048.67
2019-01-11T11:48:18.955Z,101039.05
2019-01-11T11:50:47.000Z,101032.31
2019-01-11T11:53:16.069Z,101026.58
2019-01-11T11:55:44.092Z,101023.06
2019-01-11T11:58:12.096Z,101014.94
2019-01-11T12:00:40.126Z,101014.57
2019-01-11T12:03:08.160Z,101009.66
2019-01-11T12:05:36.176Z,101011.79
2019-01-11T12:08:04.357Z,101011.23
2019-01-11T12:10:32.367Z,101004.13
2019-01-11T12:13:00.690Z,101003.76
2019-01-11T12:15:28.692Z,101002.56
2019-01-11T12:17:56.691Z,101009.93
2019-01-11T12:20:28.647Z,101006.15
2019-01-11T12:22:56.677Z,101003.56
2019-01-11T12:25:24.718Z,101006.71
2019-01-11T12:27:53.002Z,100998.48
2019-01-11T12:30:21.027Z,100999.04
2019-01-11T12:32:49.297Z,101001.32
2019-01-11T12:35:17.306Z,100996.70
2019-01-11T12:37:45.336Z,100992.81
2019-01-11T12:40:13.780Z,100997.36
2019-01-11T12:42:42.109Z,100991.61
2019-01-11T12:45:11.870Z,100992.91
2019-01-11T12:47:40.074Z,100994.09
2019-01-11T12:50:15.669Z,100989.48
2019-01-11T12:52:43.706Z,100989.02
2019-01-11T12:55:11.778Z,100981.16
2019-01-11T12:57:41.718Z,100982.92
2019-01-11T13:00:12.545Z,100983.84
2019-01-11T13:02:40.658Z,100980.23
2019-01-11T13:05:11.286Z,100983.94
2019-01-11T13:07:39.413Z,100981.45
2019-01-11T13:10:10.187Z,100965.92
2019-01-11T13:12:38.172Z,100974.52
2019-01-11T13:15:10.174Z,100982.53
2019-01-11T13:17:38.190Z,100964.67
2019-01-11T13:20:09.123Z,100965.07
2019-01-11T13:22:37.139Z,100966.41
2019-01-11T13:25:05.513Z,100965.30
2019-01-11T13:27:33.784Z,100968.98
2019-01-11T13:30:01.860Z,100971.20
2019-01-11T13:32:29.960Z,100966.05
2019-01-11T13:34:57.925Z,100966.05
2019-01-11T13:37:26.098Z,100963.67
2019-01-11T13:39:54.172Z,100966.28
2019-01-11T13:42:23.197Z,100975.87
2019-01-11T13:44:51.690Z,100972.41
2019-01-11T13:47:19.691Z,100974.91
2019-01-11T13:49:47.882Z,100977.77
2019-01-11T13:52:15.910Z,100970.21
2019-01-11T13:54:43.939Z,100965.78
2019-01-11T13:57:11.952Z,100975.67
2019-01-11T13:59:41.594Z,100986.29
2019-01-11T14:02:09.847Z,100986.56
2019-01-11T14:04:37.854Z,100987.49
2019-01-11T14:07:06.513Z,100985.00
2019-01-11T14:09:34.507Z,100981.85
2019-01-11T14:12:02.590Z,100979.83
2019-01-11T14:14:30.591Z,100972.44
2019-01-11T14:16:58.616Z,100975.13
2019-01-11T14:19:26.643Z,100979.64
2019-01-11T14:21:54.595Z,100986.87
2019-01-11T14:24:22.676Z,100984.91
2019-01-11T14:26:50.719Z,100990.08
2019-01-11T14:29:18.742Z,100985.48
2019-01-11T14:31:46.721Z,100989.62
2019-01-11T14:34:14.889Z,100991.38
2019-01-11T14:36:42.871Z,100985.47
2019-01-11T14:39:11.088Z,100998.09
2019-01-11T14:41:39.573Z,101002.17
2019-01-11T14:44:09.950Z,101004.39
2019-01-11T14:46:37.951Z,100994.61
2019-01-11T14:49:06.119Z,100997.36
2019-01-11T14:51:34.113Z,100994.14
2019-01-11T14:54:02.235Z,100999.95
2019-01-11T14:56:30.308Z,101004.76
2019-01-11T14:58:58.360Z,101000.42
2019-01-11T15:01:26.461Z,100993.13
2019-01-11T15:03:54.598Z,100998.20
2019-01-11T15:06:22.798Z,100995.61
2019-01-11T15:08:50.959Z,100998.09
2019-01-11T15:11:18.930Z,101001.08
2019-01-11T15:13:47.325Z,101002.55
2019-01-11T15:16:15.371Z,101008.08
2019-01-11T15:18:43.586Z,101004.67
2019-01-11T15:21:11.976Z,101001.25
2019-01-11T15:23:40.053Z,101004.20
2019-01-11T15:26:08.056Z,101010.40
2019-01-11T15:28:36.273Z,101013.91
2019-01-11T15:31:04.292Z,101006.25
2019-01-11T15:33:32.346Z,101014.07
2019-01-11T15:36:00.374Z,101020.89
2019-01-11T15:38:28.426Z,101028.38
2019-01-11T15:40:56.496Z,101031.52
2019-01-11T15:43:25.642Z,101029.47
2019-01-11T15:46:02.435Z,101033.90
2019-01-11T15:48:49.706Z,101027.27
2019-01-11T15:51:27.487Z,101025.95
2019-01-11T15:53:57.102Z,101022.97
2019-01-11T15:56:25.508Z,101023.99
2019-01-11T15:58:53.605Z,101029.07
2019-01-11T16:01:22.358Z,101035.62
2019-01-11T16:03:50.445Z,101028.49
2019-01-11T16:06:30.925Z,101029.61
2019-01-11T16:09:55.786Z,101031.61
2019-01-11T16:12:36.552Z,101026.55
2019-01-11T16:16:14.632Z,101029.74
2019-01-11T16:18:42.947Z,101033.25
2019-01-11T16:21:11.250Z,101032.42
2019-01-11T16:23:39.413Z,101037.31
2019-01-11T16:26:07.414Z,101035.25
2019-01-11T16:28:35.643Z,101032.86
2019-01-11T16:31:03.872Z,101028.25
2019-01-11T16:33:31.945Z,101022.87
2019-01-11T16:36:00.091Z,101024.89
2019-01-11T16:38:28.373Z,101020.28
2019-01-11T16:40:56.369Z,101013.46
2019-01-11T16:43:24.619Z,101014.02
2019-01-11T16:45:52.649Z,101014.63
2019-01-11T16:48:21.156Z,101022.02
2019-01-11T16:50:49.189Z,101021.92
2019-01-11T16:53:17.182Z,101022.59
2019-01-11T16:55:46.550Z,101027.85
2019-01-11T16:58:14.668Z,101017.67
2019-01-11T17:00:42.850Z,101025.61
2019-01-11T17:03:11.208Z,101034.80
2019-01-11T17:05:39.237Z,101030.55
2019-01-11T17:08:07.290Z,101034.25
2019-01-11T17:10:35.421Z,101031.30
2019-01-11T17:13:03.404Z,101037.37
2019-01-11T17:15:31.608Z,101036.64
2019-01-11T17:17:59.590Z,101036.33
2019-01-11T17:20:27.763Z,101032.92
2019-01-11T17:22:56.065Z,101043.34
2019-01-11T17:25:24.753Z,101047.58
2019-01-11T17:27:53.154Z,101044.54
2019-01-11T17:30:21.303Z,101047.43
2019-01-11T17:32:49.782Z,101043.25
2019-01-11T17:35:17.963Z,101039.38
2019-01-11T17:37:50.976Z,101044.02
2019-01-11T17:40:16.840Z,101041.72
2019-01-11T17:42:44.989Z,101035.11
2019-01-11T17:45:14.057Z,101033.81
2019-01-11T17:47:42.518Z,101036.21
2019-01-11T17:50:16.321Z,101034.55
2019-01-11T17:52:44.447Z,101041.09
2019-01-11T17:55:12.562Z,101039.26
2019-01-11T17:57:40.588Z,101039.16
2019-01-11T18:00:15.312Z,101034.25
2019-01-11T18:02:43.370Z,101040.91
2019-01-11T18:05:13.377Z,101038.70
2019-01-11T18:07:41.353Z,101033.91
2019-01-11T18:10:10.206Z,101039.84
2019-01-11T18:12:38.523Z,101038.09
2019-01-11T18:15:11.261Z,101034.30
2019-01-11T18:17:39.557Z,101033.44
2019-01-11T18:20:13.515Z,101036.48
2019-01-11T18:22:41.664Z,101039.84
2019-01-11T18:25:09.758Z,101039.66
2019-01-11T18:27:37.766Z,101036.00
2019-01-11T18:30:08.331Z,101036.64
2019-01-11T18:32:36.994Z,101041.19
2019-01-11T18:35:05.099Z,101033.44
2019-01-11T18:37:33.365Z,101037.22
2019-01-11T18:40:01.581Z,101033.25
2019-01-11T18:42:29.601Z,101030.14
2019-01-11T18:44:57.718Z,101020.64
2019-01-11T18:47:25.706Z,101020.23
2019-01-11T18:49:54.073Z,101024.20
2019-01-11T18:52:22.343Z,101027.72
2019-01-11T18:54:50.559Z,101030.66
2019-01-11T18:57:18.573Z,101035.38
2019-01-11T18:59:47.453Z,101026.33
2019-01-11T19:02:15.422Z,101026.42
2019-01-11T19:04:43.597Z,101029.28
2019-01-11T19:07:11.884Z,101023.69
2019-01-11T19:09:39.918Z,101020.08
2019-01-11T19:12:08.033Z,101028.47
2019-01-11T19:14:36.018Z,101027.64
2019-01-11T19:17:04.302Z,101018.59
2019-01-11T19:19:33.313Z,101020.47
2019-01-11T19:22:01.860Z,101018.16
2019-01-11T19:24:29.900Z,101015.14
2019-01-11T19:26:58.085Z,101019.75
2019-01-11T19:29:26.086Z,101022.61
2019-01-11T19:31:54.115Z,101023.80
2019-01-11T19:34:22.157Z,101023.28
2019-01-11T19:36:50.268Z,101023.55
2019-01-11T19:39:18.863Z,101022.63
2019-01-11T19:41:48.159Z,101019.11
2019-01-11T19:44:16.166Z,101017.45
2019-01-11T19:46:45.122Z,101017.65
2019-01-11T19:49:13.235Z,101025.03
2019-01-11T19:51:41.260Z,101030.66
2019-01-11T19:54:09.502Z,101036.30
2019-01-11T19:56:37.766Z,101033.25
2019-01-11T19:59:05.861Z,101034.60
2019-01-11T20:01:33.982Z,101034.70
2019-01-11T20:04:02.439Z,101033.31
2019-01-11T20:06:30.515Z,101030.66
2019-01-11T20:08:58.906Z,101032.78
2019-01-11T20:11:27.211Z,101038.13
2019-01-11T20:13:56.275Z,101040.25
2019-01-11T20:16:24.989Z,101038.95
2019-01-11T20:18:53.447Z,101041.64
2019-01-11T20:21:21.897Z,101044.69
2019-01-11T20:23:49.893Z,101044.05
2019-01-11T20:26:18.278Z,101043.12
2019-01-11T20:28:47.069Z,101044.11
2019-01-11T20:31:15.164Z,101051.34
2019-01-11T20:33:43.213Z,101050.41
2019-01-11T20:36:11.342Z,101047.36
2019-01-11T20:38:39.645Z,101050.31
2019-01-11T20:41:09.778Z,101055.85
2019-01-11T20:43:38.081Z,101051.05
2019-01-11T20:46:06.277Z,101049.97
2019-01-11T20:48:34.298Z,101052.45
2019-01-11T20:51:02.534Z,101053.65
2019-01-11T20:53:30.789Z,101046.27
2019-01-11T20:56:00.703Z,101043.31
2019-01-11T20:58:28.710Z,101043.31
2019-01-11T21:00:57.370Z,101040.73
2019-01-11T21:03:25.390Z,101044.91
2019-01-11T21:05:53.695Z,101050.91
2019-01-11T21:08:21.775Z,101050.72
2019-01-11T21:10:50.506Z,101059.66
2019-01-11T21:13:18.704Z,101056.55
2019-01-11T21:15:47.560Z,101054.70
2019-01-11T21:18:15.761Z,101053.67
2019-01-11T21:20:43.817Z,101053.15
2019-01-11T21:23:12.159Z,101051.30
2019-01-11T21:25:40.329Z,101058.32
2019-01-11T21:28:08.643Z,101062.66
2019-01-11T21:30:36.752Z,101052.39
2019-01-11T21:33:04.888Z,101054.97
2019-01-11T21:35:33.074Z,101060.91
2019-01-11T21:38:01.243Z,101053.78
2019-01-11T21:40:29.495Z,101055.84
2019-01-11T21:42:57.780Z,101057.87
2019-01-11T21:45:25.795Z,101054.26
2019-01-11T21:47:54.003Z,101049.55
2019-01-11T21:50:25.347Z,101052.97
2019-01-11T21:52:53.371Z,101053.53
2019-01-11T21:55:21.586Z,101054.09
2019-01-11T21:57:49.906Z,101047.26
2019-01-11T22:00:31.490Z,101048.61
2019-01-11T22:02:59.805Z,101046.03
2019-01-11T22:05:27.922Z,101044.67
2019-01-11T22:07:56.022Z,101041.98
2019-01-11T22:10:24.027Z,101050.21
2019-01-11T22:12:52.160Z,101040.80
2019-01-11T22:15:20.483Z,101037.81
2019-01-11T22:17:49.486Z,101042.82
2019-01-11T22:20:18.016Z,101039.41
2019-01-11T22:22:46.093Z,101035.06
2019-01-11T22:25:14.740Z,101038.94
2019-01-11T22:27:43.234Z,101038.58
2019-01-11T22:30:17.469Z,101044.58
2019-01-11T22:32:45.612Z,101039.50
2019-01-11T22:35:14.778Z,101041.69
2019-01-11T22:37:42.966Z,101041.78
2019-01-11T22:40:17.009Z,101047.42
2019-01-11T22:42:45.481Z,101041.05
2019-01-11T22:45:13.955Z,101033.39
2019-01-11T22:47:42.503Z,101038.56
2019-01-11T22:50:11.860Z,101035.42
2019-01-11T22:52:40.236Z,101029.78
2019-01-11T22:55:10.095Z,101028.95
2019-01-11T22:57:38.088Z,101032.56
2019-01-11T23:00:50.218Z,101039.92
2019-01-11T23:03:35.694Z,101038.17
2019-01-11T23:06:29.591Z,101044.20
2019-01-11T23:08:57.656Z,101046.69
2019-01-11T23:12:23.252Z,101053.05
2019-01-11T23:14:51.263Z,101047.42
2019-01-11T23:17:49.566Z,101050.84
2019-01-11T23:20:18.297Z,101050.00
2019-01-11T23:22:46.414Z,101054.25
2019-01-11T23:25:14.613Z,101054.72
2019-01-11T23:27:42.696Z,101058.95
2019-01-11T23:30:15.062Z,101059.88
2019-01-11T23:32:43.068Z,101060.34
2019-01-11T23:35:11.065Z,101054.34
2019-01-11T23:37:39.152Z,101055.91
2019-01-11T23:40:10.483Z,101058.89
2019-01-11T23:42:38.496Z,101059.72
2019-01-11T23:45:13.970Z,101059.33
2019-01-11T23:56:11.231Z,101064.69
2019-01-11T23:58:39.374Z,101068.00
